Time;durP1;ratioP1;P1;durP2;ratioP2;P2;SDS_P1;SDS_P2;PMS_P1;PMS_P2;Temp;Humidity;BMP_temperature;BMP_pressure;BME280_temperature;BME280_humidity;BME280_pressure;Samples;Min_cycle;Max_cycle;Signal;HPM_P1;HPM_P2
2021/01/10 00:00:48;;;;;;;39.88;12.10;;;-0.20;96.60;;;;;;5125420;28;20047;-70
2021/01/10 00:03:14;;;;;;;43.45;12.63;;;-0.30;96.20;;;;;;5116452;28;20069;-70
2021/01/10 00:05:41;;;;;;;39.00;13.07;;;-0.30;96.30;;;;;;5108421;28;20048;-70
2021/01/10 00:08:07;;;;;;;15.20;10.52;;;-0.40;96.50;;;;;;5117054;28;20380;-70
2021/01/10 00:10:33;;;;;;;14.82;10.45;;;-0.50;96.30;;;;;;5106002;28;20051;-70
2021/01/10 00:13:01;;;;;;;26.35;13.63;;;-0.50;96.20;;;;;;5108672;28;20059;-70
2021/01/10 00:15:27;;;;;;;113.35;17.45;;;-0.50;96.50;;;;;;5110650;28;20053;-70
2021/01/10 00:17:54;;;;;;;106.43;15.10;;;-0.60;96.30;;;;;;5105607;28;20048;-70
2021/01/10 00:20:21;;;;;;;86.68;11.63;;;-0.60;96.50;;;;;;5119086;28;20051;-70
2021/01/10 00:22:54;;;;;;;30.85;9.23;;;-0.60;97.10;;;;;;5112894;28;20074;-70
2021/01/10 00:25:20;;;;;;;12.60;10.02;;;-0.60;97.40;;;;;;5109509;28;20040;-70
2021/01/10 00:27:47;;;;;;;12.50;10.70;;;-0.60;97.60;;;;;;5105653;28;20040;-70
2021/01/10 00:30:16;;;;;;;19.10;9.13;;;-0.50;97.60;;;;;;5105387;28;20048;-70
2021/01/10 00:32:49;;;;;;;14.10;10.38;;;-0.50;97.80;;;;;;5114713;28;20048;-70
2021/01/10 00:35:16;;;;;;;11.73;8.45;;;-0.50;97.20;;;;;;5107972;28;20054;-70
2021/01/10 00:37:49;;;;;;;9.63;8.57;;;-0.50;97.30;;;;;;5105780;28;20129;-70
2021/01/10 00:40:17;;;;;;;10.57;9.10;;;-0.60;96.20;;;;;;5106753;28;20036;-70
2021/01/10 00:42:43;;;;;;;11.20;9.25;;;-0.70;95.70;;;;;;5116176;27;20044;-70
2021/01/10 00:45:10;;;;;;;11.25;9.88;;;-0.70;96.10;;;;;;5108992;28;20095;-70
2021/01/10 00:47:37;;;;;;;18.08;12.30;;;-0.60;96.90;;;;;;5116513;28;20043;-70
2021/01/10 00:50:04;;;;;;;53.20;12.18;;;-0.70;96.50;;;;;;5106002;28;20044;-70
2021/01/10 00:52:30;;;;;;;43.47;13.63;;;-0.80;96.60;;;;;;5104975;28;20048;-70
2021/01/10 00:54:56;;;;;;;18.83;6.22;;;-0.80;96.90;;;;;;5106272;28;20048;-70
2021/01/10 00:57:22;;;;;;;13.90;8.07;;;-0.70;97.60;;;;;;5118408;28;20131;-70
2021/01/10 00:59:48;;;;;;;8.95;8.05;;;-0.70;97.50;;;;;;5107468;28;20056;-70
2021/01/10 01:02:15;;;;;;;35.42;11.05;;;-0.70;97.30;;;;;;5105152;28;20052;-70
2021/01/10 01:04:41;;;;;;;13.15;10.68;;;-0.80;97.10;;;;;;5119495;28;20054;-70
2021/01/10 01:07:07;;;;;;;17.55;14.35;;;-0.80;97.20;;;;;;5112042;28;20111;-70
2021/01/10 01:09:33;;;;;;;13.23;10.68;;;-0.90;96.40;;;;;;5111910;28;20055;-70
2021/01/10 01:11:59;;;;;;;13.00;9.57;;;-0.90;96.50;;;;;;5104786;28;20404;-70
2021/01/10 01:14:26;;;;;;;47.65;10.27;;;-0.90;96.60;;;;;;5106032;28;20067;-70
2021/01/10 01:16:52;;;;;;;12.80;9.32;;;-1.00;96.70;;;;;;5104717;28;20028;-70
2021/01/10 01:19:18;;;;;;;12.70;9.13;;;-1.00;96.80;;;;;;5104723;28;20138;-70
2021/01/10 01:21:43;;;;;;;9.43;8.43;;;-1.10;96.10;;;;;;5104362;28;20130;-71
2021/01/10 01:24:09;;;;;;;9.55;8.18;;;-1.10;95.70;;;;;;5105231;28;20139;-70
2021/01/10 01:26:35;;;;;;;8.20;7.22;;;-1.10;96.50;;;;;;5104290;28;20126;-70
2021/01/10 01:29:01;;;;;;;7.50;6.50;;;-1.00;96.40;;;;;;5104660;28;20135;-70
2021/01/10 01:31:29;;;;;;;9.88;7.47;;;-1.00;96.60;;;;;;5104540;28;20044;-70
2021/01/10 01:33:55;;;;;;;6.95;5.97;;;-1.00;96.70;;;;;;5107188;28;20082;-70
2021/01/10 01:36:24;;;;;;;6.55;5.80;;;-0.90;97.50;;;;;;5108913;28;20523;-70
2021/01/10 01:38:51;;;;;;;8.57;6.35;;;-0.90;97.40;;;;;;5120662;28;20050;-70
2021/01/10 01:41:18;;;;;;;6.40;5.63;;;-0.90;97.20;;;;;;5109556;28;20040;-70
2021/01/10 01:43:43;;;;;;;8.40;5.75;;;-0.90;97.10;;;;;;5109225;28;20135;-70
2021/01/10 01:46:11;;;;;;;6.30;5.70;;;-0.90;97.30;;;;;;5108617;28;20055;-70
2021/01/10 01:48:40;;;;;;;5.85;4.82;;;-1.00;96.00;;;;;;5108758;28;20037;-70
2021/01/10 01:51:07;;;;;;;6.18;4.60;;;-1.00;96.10;;;;;;5114220;28;20048;-70
2021/01/10 01:53:33;;;;;;;6.50;5.60;;;-1.00;96.70;;;;;;5116101;28;20063;-70
2021/01/10 01:55:59;;;;;;;7.65;5.53;;;-0.90;97.10;;;;;;5111801;28;20040;-70
2021/01/10 01:58:26;;;;;;;8.45;5.88;;;-1.00;96.60;;;;;;5113985;28;20126;-70
2021/01/10 02:00:53;;;;;;;8.10;5.72;;;-1.00;97.00;;;;;;5109009;28;20040;-70
2021/01/10 02:03:34;;;;;;;7.07;5.82;;;-0.90;97.50;;;;;;5090502;28;20142;-70
2021/01/10 02:06:14;;;;;;;6.47;5.70;;;-0.90;97.60;;;;;;5121333;28;20067;-70
2021/01/10 02:08:41;;;;;;;9.13;6.28;;;-1.10;96.80;;;;;;5108311;27;20051;-70
2021/01/10 02:11:11;;;;;;;7.30;5.45;;;-1.10;97.10;;;;;;5112325;27;20039;-70
2021/01/10 02:13:38;;;;;;;7.75;5.88;;;-1.10;97.20;;;;;;5125813;28;20044;-70
2021/01/10 02:16:05;;;;;;;7.97;6.38;;;-1.10;97.40;;;;;;5124319;28;20048;-70
2021/01/10 02:18:34;;;;;;;6.63;5.85;;;-1.10;97.60;;;;;;5108426;27;20050;-71
2021/01/10 02:21:06;;;;;;;6.82;5.53;;;-1.00;97.60;;;;;;5107909;28;20082;-70
2021/01/10 02:23:33;;;;;;;5.32;4.40;;;-1.00;97.20;;;;;;5107837;28;20103;-70
2021/01/10 02:26:02;;;;;;;7.13;4.50;;;-1.10;96.00;;;;;;5107790;27;20059;-70
2021/01/10 02:28:30;;;;;;;5.00;4.50;;;-1.20;95.20;;;;;;5107670;28;20048;-70
2021/01/10 02:30:58;;;;;;;4.68;4.25;;;-1.40;94.60;;;;;;5108415;28;20080;-70
2021/01/10 02:33:48;;;;;;;5.53;4.53;;;-1.50;94.20;;;;;;5107923;28;20105;-70
2021/01/10 02:36:55;;;;;;;6.88;4.53;;;-1.60;94.20;;;;;;5128691;28;20054;-70
2021/01/10 02:39:32;;;;;;;10.05;6.20;;;-1.70;96.10;;;;;;5120964;28;20063;-70
2021/01/10 02:42:24;;;;;;;9.13;5.82;;;-1.60;97.60;;;;;;5107506;28;20108;-70
2021/01/10 02:45:20;;;;;;;9.18;7.35;;;-1.40;99.00;;;;;;5105912;28;20040;-70
2021/01/10 02:47:49;;;;;;;9.48;6.00;;;-1.30;99.80;;;;;;5110263;28;20044;-70
2021/01/10 02:50:18;;;;;;;10.45;5.82;;;-1.20;99.40;;;;;;5107500;28;20075;-70
2021/01/10 02:52:47;;;;;;;14.45;5.43;;;-1.10;99.30;;;;;;5107202;28;20048;-70
2021/01/10 02:55:13;;;;;;;8.73;4.97;;;-1.00;99.40;;;;;;5108581;27;20137;-70
2021/01/10 02:57:44;;;;;;;12.18;4.82;;;-0.90;99.70;;;;;;5107567;28;20063;-70
2021/01/10 03:00:12;;;;;;;7.90;4.85;;;-0.80;99.70;;;;;;5112741;28;20040;-70
2021/01/10 03:02:38;;;;;;;9.38;4.40;;;-0.70;99.40;;;;;;5117873;28;20071;-70
2021/01/10 03:05:06;;;;;;;10.07;4.93;;;-0.60;99.20;;;;;;5121035;28;20039;-70
2021/01/10 03:07:35;;;;;;;8.38;3.42;;;-0.60;99.10;;;;;;5107200;28;20044;-70
2021/01/10 03:10:02;;;;;;;8.95;4.43;;;-0.70;97.80;;;;;;5107081;28;20122;-70
2021/01/10 03:12:28;;;;;;;10.32;4.55;;;-0.70;97.70;;;;;;5106794;28;20044;-70
2021/01/10 03:15:02;;;;;;;9.10;4.13;;;-0.60;98.80;;;;;;5109035;28;21080;-70
2021/01/10 03:17:29;;;;;;;9.20;3.85;;;-0.50;98.50;;;;;;5106705;28;20039;-70
2021/01/10 03:19:55;;;;;;;6.03;3.35;;;-0.60;97.80;;;;;;5106900;28;20044;-70
2021/01/10 03:22:21;;;;;;;5.75;3.67;;;-0.60;97.30;;;;;;5106890;27;20062;-70
2021/01/10 03:24:47;;;;;;;5.18;3.55;;;-0.70;97.20;;;;;;5106781;28;20040;-70
2021/01/10 03:27:13;;;;;;;6.80;3.75;;;-0.70;97.20;;;;;;5106821;28;20039;-70
2021/01/10 03:29:38;;;;;;;5.70;3.40;;;-0.70;97.30;;;;;;5106644;27;20060;-70
2021/01/10 03:32:05;;;;;;;5.47;3.22;;;-0.70;97.50;;;;;;5115713;28;20044;-70
2021/01/10 03:34:30;;;;;;;6.82;3.35;;;-0.70;97.30;;;;;;5110866;28;20074;-70
2021/01/10 03:36:56;;;;;;;4.57;3.30;;;-0.80;96.60;;;;;;5111579;28;20040;-70
2021/01/10 03:39:22;;;;;;;6.88;4.10;;;-0.90;96.40;;;;;;5125888;28;20078;-70
2021/01/10 03:41:48;;;;;;;6.38;3.25;;;-0.90;96.60;;;;;;5121074;28;20063;-70
2021/01/10 03:44:13;;;;;;;6.95;4.20;;;-0.90;96.90;;;;;;5117375;27;20044;-70
2021/01/10 03:46:39;;;;;;;7.65;4.80;;;-0.90;97.30;;;;;;5107118;28;20036;-70
2021/01/10 03:49:05;;;;;;;12.63;4.82;;;-0.90;98.10;;;;;;5106312;28;20077;-70
2021/01/10 03:51:31;;;;;;;11.02;4.20;;;-0.80;98.50;;;;;;5106214;27;20042;-70
2021/01/10 03:53:57;;;;;;;10.57;4.40;;;-0.80;98.80;;;;;;5107274;28;20504;-70
2021/01/10 03:56:22;;;;;;;9.68;4.32;;;-0.70;99.00;;;;;;5114398;28;20075;-70
2021/01/10 03:58:48;;;;;;;10.88;3.85;;;-0.60;99.30;;;;;;5114949;28;20054;-70
2021/01/10 04:01:14;;;;;;;8.40;4.10;;;-0.60;99.00;;;;;;5120894;28;20276;-70
2021/01/10 04:03:40;;;;;;;6.18;3.75;;;-0.50;99.30;;;;;;5106254;28;20043;-70
2021/01/10 04:06:06;;;;;;;8.88;4.20;;;-0.50;98.80;;;;;;5105538;28;20052;-70
2021/01/10 04:08:32;;;;;;;10.23;4.50;;;-0.50;98.50;;;;;;5106373;28;20075;-70
2021/01/10 04:10:57;;;;;;;8.93;4.00;;;-0.60;98.30;;;;;;5106252;28;20047;-70
2021/01/10 04:13:23;;;;;;;9.27;3.80;;;-0.60;98.30;;;;;;5111878;28;20051;-70
2021/01/10 04:15:49;;;;;;;8.15;4.38;;;-0.70;97.90;;;;;;5110406;28;20044;-70
2021/01/10 04:18:15;;;;;;;5.60;4.05;;;-0.70;97.90;;;;;;5105873;28;20058;-70
2021/01/10 04:20:40;;;;;;;12.52;4.60;;;-0.70;98.10;;;;;;5105492;28;20056;-70
2021/01/10 04:23:06;;;;;;;12.40;4.93;;;-0.70;98.10;;;;;;5105210;28;20044;-70
2021/01/10 04:25:32;;;;;;;9.10;4.55;;;-0.80;98.40;;;;;;5106383;28;20055;-70
2021/01/10 04:27:58;;;;;;;9.23;4.38;;;-0.80;98.30;;;;;;5105732;27;20503;-70
2021/01/10 04:30:23;;;;;;;8.48;4.55;;;-0.80;98.50;;;;;;5105211;28;20043;-70
2021/01/10 04:32:50;;;;;;;8.00;3.88;;;-0.80;98.50;;;;;;5105687;28;20403;-70
2021/01/10 04:35:16;;;;;;;12.13;4.40;;;-0.80;98.50;;;;;;5105248;28;20060;-70
2021/01/10 04:37:42;;;;;;;8.73;3.60;;;-0.80;98.80;;;;;;5105587;28;20055;-70
2021/01/10 04:40:08;;;;;;;10.88;3.67;;;-0.80;98.70;;;;;;5109438;28;20044;-70
2021/01/10 04:42:34;;;;;;;9.73;3.78;;;-0.80;98.50;;;;;;5108709;28;20043;-70
2021/01/10 04:45:01;;;;;;;10.00;4.32;;;-0.70;98.80;;;;;;5112950;28;20044;-70
2021/01/10 04:47:27;;;;;;;9.88;3.75;;;-0.70;98.70;;;;;;5105432;28;20103;-70
2021/01/10 04:49:53;;;;;;;8.80;4.05;;;-0.80;98.70;;;;;;5104964;28;20048;-69
2021/01/10 04:52:21;;;;;;;10.07;3.97;;;-0.80;98.50;;;;;;5104612;28;20044;-70
2021/01/10 04:54:47;;;;;;;8.40;4.03;;;-0.80;98.50;;;;;;5105253;28;20423;-70
2021/01/10 04:57:13;;;;;;;11.77;4.25;;;-0.70;98.60;;;;;;5111376;28;20047;-70
2021/01/10 04:59:42;;;;;;;9.27;3.85;;;-0.80;98.30;;;;;;5125142;28;20035;-70
2021/01/10 05:02:09;;;;;;;7.67;4.13;;;-0.80;98.10;;;;;;5125744;28;20066;-70
2021/01/10 05:04:36;;;;;;;10.45;3.60;;;-0.90;98.10;;;;;;5125725;28;20517;-70
2021/01/10 05:07:03;;;;;;;11.63;4.50;;;-0.90;98.20;;;;;;5125061;28;20047;-70
2021/01/10 05:09:31;;;;;;;8.98;3.50;;;-0.90;98.30;;;;;;5116698;28;20055;-70
2021/01/10 05:11:57;;;;;;;11.15;4.07;;;-0.90;98.40;;;;;;5120460;28;20047;-70
2021/01/10 05:14:23;;;;;;;9.45;3.97;;;-0.80;99.00;;;;;;5125839;28;20527;-70
2021/01/10 05:16:49;;;;;;;12.80;4.88;;;-0.70;99.20;;;;;;5111524;28;20040;-70
2021/01/10 05:19:21;;;;;;;10.20;3.78;;;-0.50;99.20;;;;;;5125619;28;20111;-70
2021/01/10 05:21:47;;;;;;;8.95;4.15;;;-0.40;98.80;;;;;;5125288;28;20123;-70
2021/01/10 05:24:19;;;;;;;8.77;4.05;;;-0.40;98.40;;;;;;5125667;28;20048;-70
2021/01/10 05:26:45;;;;;;;6.13;3.40;;;-0.40;98.60;;;;;;5107057;28;20518;-70
2021/01/10 05:29:12;;;;;;;8.15;3.97;;;-0.40;98.40;;;;;;5125561;28;20047;-70
2021/01/10 05:31:44;;;;;;;14.77;3.70;;;-0.30;98.40;;;;;;5124663;28;20047;-70
2021/01/10 05:34:17;;;;;;;9.32;4.20;;;-0.20;97.90;;;;;;5125252;28;20139;-70
2021/01/10 05:36:43;;;;;;;5.70;3.55;;;-0.30;98.00;;;;;;5125585;28;20062;-70
2021/01/10 05:39:25;;;;;;;11.23;3.97;;;-0.30;98.30;;;;;;5125536;28;20074;-70
2021/01/10 05:41:58;;;;;;;9.38;3.80;;;-0.30;98.20;;;;;;5124754;28;20036;-70
2021/01/10 05:44:25;;;;;;;7.68;4.20;;;-0.20;98.00;;;;;;5118017;28;20044;-70
2021/01/10 05:47:04;;;;;;;10.32;4.63;;;-0.20;97.80;;;;;;5125076;28;20040;-70
2021/01/10 05:49:31;;;;;;;11.68;4.45;;;-0.10;97.60;;;;;;5125441;28;20070;-70
2021/01/10 05:52:07;;;;;;;9.07;4.20;;;-0.10;97.60;;;;;;5124497;28;20044;-70
2021/01/10 05:54:53;;;;;;;8.90;4.65;;;-0.10;98.00;;;;;;5125159;28;20190;-70
2021/01/10 05:57:26;;;;;;;8.52;4.25;;;-0.20;97.70;;;;;;5113978;28;20047;-70
2021/01/10 05:59:53;;;;;;;8.68;4.50;;;-0.30;98.00;;;;;;5124609;28;20040;-70
2021/01/10 06:02:29;;;;;;;10.48;5.25;;;-0.20;97.80;;;;;;5125149;28;20047;-70
2021/01/10 06:05:11;;;;;;;11.02;4.70;;;-0.30;97.70;;;;;;5125205;28;20048;-70
2021/01/10 06:07:38;;;;;;;10.40;4.30;;;-0.30;98.20;;;;;;5125727;28;20059;-70
2021/01/10 06:10:06;;;;;;;6.80;4.65;;;-0.20;98.40;;;;;;5125087;28;20070;-70
2021/01/10 06:12:32;;;;;;;8.65;4.82;;;-0.20;98.10;;;;;;5124538;28;20048;-70
2021/01/10 06:15:30;;;;;;;11.13;5.00;;;-0.10;97.80;;;;;;5124799;28;20173;-70
2021/01/10 06:18:00;;;;;;;12.45;5.63;;;0.00;97.60;;;;;;5123671;28;20064;-70
2021/01/10 06:20:31;;;;;;;11.57;5.03;;;0.00;97.50;;;;;;5127359;28;20051;-70
2021/01/10 06:23:02;;;;;;;14.35;5.07;;;-0.10;97.60;;;;;;5128502;28;20054;-70
2021/01/10 06:25:31;;;;;;;9.50;4.70;;;-0.10;97.60;;;;;;5128928;28;20051;-70
2021/01/10 06:28:16;;;;;;;10.20;5.03;;;-0.10;97.50;;;;;;5128311;28;20044;-70
2021/01/10 06:30:56;;;;;;;9.18;4.90;;;-0.10;97.70;;;;;;5128030;28;20073;-70
2021/01/10 06:33:32;;;;;;;;;;;-0.10;97.90;;;;;;5128909;28;20047;-70
2021/01/10 06:36:06;;;;;;;9.30;4.70;;;-0.10;97.60;;;;;;5128086;28;19992;-70
2021/01/10 06:38:34;;;;;;;9.65;4.95;;;-0.30;97.70;;;;;;5128649;28;20043;-70
2021/01/10 06:41:40;;;;;;;12.65;5.50;;;-0.30;97.60;;;;;;5127889;27;20061;-70
2021/01/10 06:44:08;;;;;;;9.50;5.15;;;-0.40;97.90;;;;;;5128187;28;20058;-70
2021/01/10 06:46:34;;;;;;;9.15;5.10;;;-0.30;97.80;;;;;;5128824;28;20040;-70
2021/01/10 06:49:06;;;;;;;12.05;5.10;;;-0.40;98.00;;;;;;5127738;28;20044;-70
2021/01/10 06:51:35;;;;;;;11.95;5.55;;;-0.40;98.00;;;;;;5127914;28;20028;-70
2021/01/10 06:54:05;;;;;;;13.87;5.07;;;-0.40;98.00;;;;;;5126619;28;20043;-70
2021/01/10 06:56:32;;;;;;;11.65;5.25;;;-0.40;98.20;;;;;;5121776;28;20312;-70
2021/01/10 06:59:09;;;;;;;10.05;5.05;;;-0.40;98.30;;;;;;5122000;28;20062;-70
2021/01/10 07:01:51;;;;;;;11.80;4.88;;;-0.40;98.10;;;;;;5127688;28;20048;-70
2021/01/10 07:04:25;;;;;;;11.80;5.70;;;-0.40;98.10;;;;;;5122458;28;20032;-70
2021/01/10 07:06:52;;;;;;;11.63;4.88;;;-0.40;97.90;;;;;;5120240;28;20063;-70
2021/01/10 07:09:21;;;;;;;9.98;4.82;;;-0.40;97.90;;;;;;5128208;28;20044;-70
2021/01/10 07:11:49;;;;;;;13.25;4.93;;;-0.40;98.00;;;;;;5114675;28;20044;-70
2021/01/10 07:14:17;;;;;;;11.75;5.68;;;-0.30;97.80;;;;;;5126986;28;20040;-70
2021/01/10 07:16:46;;;;;;;10.43;5.13;;;-0.20;97.60;;;;;;5127607;28;20059;-70
2021/01/10 07:19:13;;;;;;;12.93;6.18;;;-0.20;97.40;;;;;;5127286;28;20048;-70
2021/01/10 07:21:45;;;;;;;9.57;5.20;;;-0.20;97.40;;;;;;5127227;28;20059;-70
2021/01/10 07:24:16;;;;;;;12.55;4.88;;;-0.10;97.30;;;;;;5127795;28;20092;-70
2021/01/10 07:26:50;;;;;;;14.63;5.97;;;-0.10;97.20;;;;;;5127156;28;20139;-70
2021/01/10 07:29:38;;;;;;;9.57;5.22;;;0.00;97.10;;;;;;5127438;28;20109;-70
2021/01/10 07:32:13;;;;;;;11.88;5.57;;;0.00;97.20;;;;;;5126235;28;20040;-70
2021/01/10 07:34:45;;;;;;;10.10;5.82;;;0.00;97.00;;;;;;5127541;28;20055;-70
2021/01/10 07:37:16;;;;;;;10.13;5.50;;;0.00;96.90;;;;;;5127056;28;20166;-70
2021/01/10 07:39:50;;;;;;;9.70;6.05;;;0.00;97.00;;;;;;5109081;28;20040;-70
2021/01/10 07:42:21;;;;;;;11.23;5.68;;;0.00;97.00;;;;;;5123492;28;20040;-70
2021/01/10 07:44:48;;;;;;;10.68;5.30;;;0.00;96.80;;;;;;5121453;28;20047;-70
2021/01/10 07:47:14;;;;;;;13.43;5.80;;;0.00;97.30;;;;;;5127428;28;20050;-70
2021/01/10 07:49:57;;;;;;;14.38;5.90;;;0.00;96.90;;;;;;5113136;28;20067;-70
2021/01/10 07:52:42;;;;;;;12.63;6.10;;;0.00;97.00;;;;;;5126537;28;20077;-70
2021/01/10 07:55:32;;;;;;;10.80;6.07;;;0.00;97.00;;;;;;5126606;28;20054;-70
2021/01/10 07:58:00;;;;;;;11.52;6.30;;;0.20;96.80;;;;;;5126451;28;20491;-70
2021/01/10 08:00:32;;;;;;;13.65;6.93;;;0.10;96.70;;;;;;5126735;28;20476;-70
2021/01/10 08:03:09;;;;;;;15.95;6.60;;;0.00;96.90;;;;;;5112750;28;20131;-70
2021/01/10 08:05:38;;;;;;;12.18;7.05;;;0.00;97.10;;;;;;5126894;28;20169;-70
2021/01/10 08:08:13;;;;;;;13.20;6.50;;;0.10;97.20;;;;;;5126391;28;20048;-70
2021/01/10 08:10:49;;;;;;;13.52;6.93;;;0.20;96.90;;;;;;5127250;28;20050;-70
2021/01/10 08:13:30;;;;;;;11.90;7.03;;;0.20;96.70;;;;;;5126087;28;20047;-70
2021/01/10 08:16:04;;;;;;;13.20;7.38;;;0.20;96.80;;;;;;5126362;28;20059;-70
2021/01/10 08:18:41;;;;;;;18.00;8.13;;;0.10;97.00;;;;;;5126570;28;20039;-70
2021/01/10 08:21:12;;;;;;;12.82;7.78;;;0.20;97.10;;;;;;5111306;28;20075;-70
2021/01/10 08:23:40;;;;;;;12.65;7.22;;;0.20;97.10;;;;;;5124953;28;20047;-69
2021/01/10 08:26:16;;;;;;;11.82;7.20;;;0.30;97.00;;;;;;5125656;28;20112;-72
2021/01/10 08:28:49;;;;;;;12.80;7.57;;;0.30;96.70;;;;;;5099068;28;20106;-70
2021/01/10 08:31:17;;;;;;;10.13;7.20;;;0.40;96.60;;;;;;5125410;28;20044;-70
2021/01/10 08:33:43;;;;;;;13.80;8.50;;;0.30;96.70;;;;;;5126440;28;20092;-68
2021/01/10 08:36:09;;;;;;;14.02;7.93;;;0.40;96.80;;;;;;5106701;28;20050;-70
2021/01/10 08:38:35;;;;;;;16.92;8.38;;;0.40;96.80;;;;;;5124730;27;20047;-70
2021/01/10 08:41:01;;;;;;;14.35;7.47;;;0.40;96.60;;;;;;5105952;28;20039;-71
2021/01/10 08:43:27;;;;;;;11.73;8.02;;;0.40;96.80;;;;;;5124000;28;20044;-70
2021/01/10 08:45:53;;;;;;;10.90;7.60;;;0.40;96.90;;;;;;5125739;28;20065;-69
2021/01/10 08:48:19;;;;;;;15.32;7.90;;;0.50;96.60;;;;;;5126097;28;20044;-73
2021/01/10 08:50:45;;;;;;;15.07;8.73;;;0.60;96.60;;;;;;5124924;28;20050;-72
2021/01/10 08:53:10;;;;;;;15.43;7.72;;;0.50;96.60;;;;;;5106549;28;20110;-70
2021/01/10 08:55:41;;;;;;;12.43;8.45;;;0.60;96.60;;;;;;5106555;28;20131;-72
2021/01/10 08:58:09;;;;;;;13.82;8.90;;;0.70;96.20;;;;;;5124728;28;20093;-73
2021/01/10 09:00:40;;;;;;;15.85;7.85;;;0.80;96.00;;;;;;5115078;28;20066;-71
2021/01/10 09:03:11;;;;;;;;;;;0.80;96.10;;;;;;5113647;28;20047;-71
2021/01/10 09:05:38;;;;;;;14.43;8.25;;;0.70;96.20;;;;;;5120158;28;19923;-72
2021/01/10 09:08:06;;;;;;;13.43;7.80;;;0.70;96.40;;;;;;5116792;28;20047;-71
2021/01/10 09:10:37;;;;;;;13.32;8.40;;;0.70;96.30;;;;;;5105350;28;20488;-71
2021/01/10 09:13:06;;;;;;;11.68;8.50;;;0.70;96.30;;;;;;5107719;28;20071;-71
2021/01/10 09:15:37;;;;;;;15.38;9.00;;;0.80;96.30;;;;;;5108260;28;20044;-71
2021/01/10 09:18:19;;;;;;;14.65;8.15;;;0.80;96.40;;;;;;5105130;28;20109;-71
2021/01/10 09:20:56;;;;;;;13.43;8.15;;;0.80;96.40;;;;;;5104829;28;20071;-71
2021/01/10 09:23:24;;;;;;;13.90;7.97;;;0.80;96.30;;;;;;5104439;28;20044;-71
2021/01/10 09:25:50;;;;;;;13.15;8.95;;;0.80;96.30;;;;;;5105057;28;20119;-71
2021/01/10 09:28:18;;;;;;;12.60;8.65;;;0.90;96.40;;;;;;5104801;28;20137;-71
2021/01/10 09:30:43;;;;;;;15.00;8.90;;;0.90;96.00;;;;;;5116728;28;20556;-71
2021/01/10 09:33:10;;;;;;;13.63;8.20;;;0.90;96.00;;;;;;5121812;28;20075;-76
2021/01/10 09:35:44;;;;;;;14.32;8.65;;;1.00;96.00;;;;;;5125021;28;20031;-78
2021/01/10 09:38:12;;;;;;;16.95;8.77;;;0.90;96.20;;;;;;5123774;28;20044;-71
2021/01/10 09:41:04;;;;;;;15.75;8.98;;;0.90;96.50;;;;;;5125449;28;20099;-75
2021/01/10 09:43:41;;;;;;;13.68;8.70;;;0.90;96.70;;;;;;5123932;28;20061;-73
2021/01/10 09:46:32;;;;;;;15.35;8.90;;;1.00;96.50;;;;;;5124372;28;20040;-74
2021/01/10 09:49:00;;;;;;;12.88;7.97;;;1.00;96.40;;;;;;5120001;28;20047;-75
2021/01/10 09:51:43;;;;;;;14.32;9.15;;;1.00;96.50;;;;;;5124168;28;20039;-83
2021/01/10 09:54:20;;;;;;;11.48;7.88;;;1.20;96.30;;;;;;5125198;28;20047;-73
2021/01/10 09:56:48;;;;;;;14.07;7.43;;;1.30;96.20;;;;;;5124690;28;20055;-76
2021/01/10 09:59:40;;;;;;;11.50;8.30;;;1.40;96.60;;;;;;5124330;28;20043;-76
2021/01/10 10:02:23;;;;;;;16.00;8.38;;;1.50;96.00;;;;;;5127094;28;20051;-76
2021/01/10 10:04:50;;;;;;;15.13;8.13;;;1.50;95.70;;;;;;5129317;28;20039;-76
2021/01/10 10:07:34;;;;;;;13.75;8.63;;;1.60;95.60;;;;;;5129421;28;20057;-76
2021/01/10 10:10:01;;;;;;;12.70;7.97;;;1.60;95.60;;;;;;5129434;28;20039;-76
2021/01/10 10:12:27;;;;;;;14.77;8.60;;;1.50;95.70;;;;;;5128795;28;20085;-76
2021/01/10 10:15:07;;;;;;;17.10;8.38;;;1.60;95.60;;;;;;5127441;27;20048;-75
2021/01/10 10:17:35;;;;;;;18.48;8.82;;;1.70;95.40;;;;;;5128167;27;20047;-76
2021/01/10 10:20:06;;;;;;;10.32;8.07;;;1.70;95.30;;;;;;5110913;28;20056;-76
2021/01/10 10:22:34;;;;;;;12.32;7.97;;;1.70;95.40;;;;;;5107834;28;20515;-76
2021/01/10 10:25:03;;;;;;;12.00;7.88;;;1.70;95.50;;;;;;5107831;28;20044;-76
2021/01/10 10:27:31;;;;;;;13.85;7.90;;;1.70;95.70;;;;;;5107667;28;20058;-76
2021/01/10 10:29:57;;;;;;;13.82;8.13;;;1.80;95.40;;;;;;5123336;27;20055;-76
2021/01/10 10:32:24;;;;;;;11.57;7.63;;;1.80;95.20;;;;;;5115808;28;20047;-76
2021/01/10 10:34:51;;;;;;;15.23;9.00;;;1.90;95.00;;;;;;5108040;28;20093;-76
2021/01/10 10:37:17;;;;;;;13.73;7.53;;;1.90;95.20;;;;;;5107465;28;20515;-76
2021/01/10 10:39:44;;;;;;;12.90;7.47;;;1.90;95.30;;;;;;5102704;28;20043;-76
2021/01/10 10:42:13;;;;;;;12.32;8.32;;;2.00;95.30;;;;;;5100159;27;20106;-76
2021/01/10 10:44:39;;;;;;;14.43;8.23;;;2.00;95.40;;;;;;5111319;28;20044;-76
2021/01/10 10:47:05;;;;;;;15.50;8.57;;;2.10;95.30;;;;;;5107540;28;20044;-76
2021/01/10 10:49:31;;;;;;;11.30;8.50;;;2.10;95.10;;;;;;5107353;28;20047;-76
2021/01/10 10:51:57;;;;;;;14.40;8.57;;;2.10;94.60;;;;;;5107880;28;20047;-76
2021/01/10 10:54:23;;;;;;;14.10;8.52;;;2.20;94.60;;;;;;5110515;27;20055;-76
2021/01/10 10:56:50;;;;;;;14.07;8.90;;;2.20;94.80;;;;;;5120154;27;20092;-76
2021/01/10 10:59:16;;;;;;;12.38;7.50;;;2.30;94.90;;;;;;5118097;27;20036;-76
2021/01/10 11:01:48;;;;;;;15.60;8.88;;;2.30;95.00;;;;;;5107307;27;20120;-76
2021/01/10 11:04:14;;;;;;;12.68;8.38;;;2.30;95.00;;;;;;5091954;28;20070;-76
2021/01/10 11:06:40;;;;;;;12.45;8.48;;;2.30;95.00;;;;;;5105325;28;20059;-78
2021/01/10 11:09:09;;;;;;;11.15;7.35;;;2.50;95.20;;;;;;5107966;27;20044;-76
2021/01/10 11:11:40;;;;;;;13.85;9.30;;;2.60;94.70;;;;;;5109813;28;20435;-79
2021/01/10 11:14:07;;;;;;;21.50;13.43;;;2.80;93.90;;;;;;5109253;27;20055;-83
2021/01/10 11:16:35;;;;;;;16.33;10.25;;;2.70;94.10;;;;;;5111349;27;20138;-76
2021/01/10 11:19:03;;;;;;;18.40;10.68;;;2.70;94.10;;;;;;5113165;28;20087;-74
2021/01/10 11:21:31;;;;;;;13.25;9.05;;;2.70;94.10;;;;;;5102379;28;20129;-76
2021/01/10 11:23:57;;;;;;;12.60;8.38;;;2.70;94.30;;;;;;5116465;28;20050;-73
2021/01/10 11:26:23;;;;;;;27.98;22.42;;;2.70;94.30;;;;;;5108699;28;20040;-80
2021/01/10 11:28:49;;;;;;;21.77;17.50;;;2.80;94.20;;;;;;5119718;28;20035;-73
2021/01/10 11:31:17;;;;;;;23.50;15.68;;;2.90;94.00;;;;;;5109045;28;20063;-79
2021/01/10 11:33:42;;;;;;;25.80;19.02;;;2.90;93.90;;;;;;5117845;28;20067;-80
2021/01/10 11:36:09;;;;;;;13.93;9.90;;;2.90;93.90;;;;;;5108587;28;20054;-77
2021/01/10 11:38:35;;;;;;;39.33;28.75;;;3.00;94.10;;;;;;5116834;27;20047;-71
2021/01/10 11:41:09;;;;;;;76.00;49.72;;;3.10;93.60;;;;;;5108591;28;20039;-79
2021/01/10 11:43:35;;;;;;;34.95;26.45;;;3.10;93.80;;;;;;5115973;27;20055;-78
2021/01/10 11:46:03;;;;;;;35.25;25.67;;;3.30;93.40;;;;;;5115741;27;20050;-79
2021/01/10 11:48:29;;;;;;;32.47;24.73;;;3.40;93.20;;;;;;5111078;28;20040;-79
2021/01/10 11:50:55;;;;;;;13.77;11.80;;;3.50;93.00;;;;;;5105458;28;20054;-83
2021/01/10 11:53:20;;;;;;;13.25;9.75;;;3.60;92.70;;;;;;5115705;28;20044;-81
2021/01/10 11:55:46;;;;;;;26.30;21.23;;;3.50;92.50;;;;;;5104784;28;20052;-80
2021/01/10 11:58:12;;;;;;;11.50;8.25;;;3.50;92.50;;;;;;5117666;27;20056;-82
2021/01/10 12:00:38;;;;;;;13.63;10.65;;;3.60;92.50;;;;;;5106012;28;20043;-80
2021/01/10 12:03:04;;;;;;;13.00;9.38;;;3.50;92.40;;;;;;5116354;28;20043;-80
2021/01/10 12:05:30;;;;;;;16.13;11.15;;;3.40;92.80;;;;;;5110120;28;20561;-80
2021/01/10 12:07:56;;;;;;;14.52;10.30;;;3.50;92.50;;;;;;5116502;28;20052;-81
2021/01/10 12:10:22;;;;;;;15.80;10.90;;;3.40;92.70;;;;;;5121886;28;20088;-80
2021/01/10 12:12:48;;;;;;;14.48;9.88;;;3.40;93.10;;;;;;5108862;28;20138;-75
2021/01/10 12:15:14;;;;;;;13.38;8.60;;;3.30;92.90;;;;;;5120895;28;20043;-80
2021/01/10 12:17:40;;;;;;;18.63;9.88;;;3.40;92.80;;;;;;5124523;28;20052;-73
2021/01/10 12:20:06;;;;;;;14.38;9.23;;;3.40;92.80;;;;;;5124985;28;20107;-72
2021/01/10 12:22:32;;;;;;;17.35;12.48;;;3.40;92.80;;;;;;5104397;28;20040;-73
2021/01/10 12:24:58;;;;;;;15.57;10.40;;;3.50;92.90;;;;;;5105072;28;20411;-73
2021/01/10 12:27:24;;;;;;;14.52;10.73;;;3.40;93.30;;;;;;5112133;28;20093;-73
2021/01/10 12:29:49;;;;;;;15.30;11.25;;;3.40;93.20;;;;;;5113416;28;20056;-73
2021/01/10 12:32:15;;;;;;;29.23;26.48;;;3.40;93.70;;;;;;5113120;27;20055;-73
2021/01/10 12:34:41;;;;;;;20.13;13.25;;;3.50;93.40;;;;;;5125241;27;20047;-73
2021/01/10 12:37:06;;;;;;;15.07;10.50;;;3.50;93.20;;;;;;5112013;28;20039;-73
2021/01/10 12:39:32;;;;;;;15.82;12.52;;;3.60;93.30;;;;;;5126744;27;20138;-73
2021/01/10 12:41:58;;;;;;;17.05;14.13;;;3.50;93.40;;;;;;5126342;28;20052;-73
2021/01/10 12:44:24;;;;;;;15.38;11.05;;;3.50;93.80;;;;;;5126341;28;20038;-73
2021/01/10 12:46:49;;;;;;;21.40;11.65;;;3.50;93.70;;;;;;5126089;28;20046;-73
2021/01/10 12:49:15;;;;;;;17.95;10.48;;;3.50;93.90;;;;;;5122608;28;20559;-73
2021/01/10 12:51:41;;;;;;;16.33;11.13;;;3.50;93.70;;;;;;5105678;28;20051;-73
2021/01/10 12:54:07;;;;;;;16.48;13.38;;;3.60;93.50;;;;;;5118530;28;20140;-73